createdAt,value
2023-01-19T00:01:56.482Z,4.31
2023-01-19T00:04:59.495Z,4.36
2023-01-19T00:08:14.790Z,4.34
2023-01-19T00:11:19.728Z,4.35
2023-01-19T00:14:21.721Z,4.35
2023-01-19T00:17:23.724Z,4.35
2023-01-19T00:20:26.014Z,4.38
2023-01-19T00:23:27.895Z,4.41
2023-01-19T00:26:29.796Z,4.41
2023-01-19T00:29:34.374Z,4.46
2023-01-19T00:32:36.256Z,4.44
2023-01-19T00:35:38.261Z,4.46
2023-01-19T00:38:40.214Z,4.44
2023-01-19T00:42:01.118Z,4.49
2023-01-19T00:45:02.978Z,4.52
2023-01-19T00:48:05.051Z,4.53
2023-01-19T00:51:06.918Z,4.50
2023-01-19T00:54:10.468Z,4.48
2023-01-19T00:57:12.786Z,4.48
2023-01-19T01:00:17.403Z,4.54
2023-01-19T01:03:19.485Z,4.51
2023-01-19T01:06:21.557Z,4.53
2023-01-19T01:09:24.363Z,4.51
2023-01-19T01:12:26.425Z,4.52
2023-01-19T01:15:29.634Z,4.46
2023-01-19T01:18:31.673Z,4.44
2023-01-19T01:21:34.753Z,4.42
2023-01-19T01:24:36.768Z,4.42
2023-01-19T01:27:38.913Z,4.37
2023-01-19T01:30:41.268Z,4.35
2023-01-19T01:33:43.161Z,4.34
2023-01-19T01:36:45.080Z,4.35
2023-01-19T01:39:46.987Z,4.30
2023-01-19T01:42:48.956Z,4.28
2023-01-19T01:45:52.067Z,4.24
2023-01-19T01:49:10.439Z,4.27
2023-01-19T01:52:15.147Z,4.23
2023-01-19T01:55:18.165Z,4.21
2023-01-19T01:58:19.947Z,4.20
2023-01-19T02:01:41.171Z,4.15
2023-01-19T02:04:50.633Z,4.18
2023-01-19T02:08:33.777Z,4.17
2023-01-19T02:11:54.939Z,4.11
2023-01-19T02:14:56.890Z,4.08
2023-01-19T02:17:59.000Z,4.02
2023-01-19T02:21:15.805Z,4.06
2023-01-19T02:24:18.351Z,4.04
2023-01-19T02:27:20.869Z,3.99
2023-01-19T02:30:23.155Z,4.01
2023-01-19T02:33:25.193Z,4.00
2023-01-19T02:36:41.245Z,3.99
2023-01-19T02:39:51.834Z,3.98
2023-01-19T02:42:59.009Z,3.94
2023-01-19T02:46:01.228Z,3.94
2023-01-19T02:49:03.200Z,3.92
2023-01-19T02:52:05.987Z,3.89
2023-01-19T02:55:18.361Z,3.97
2023-01-19T02:58:54.649Z,3.95
2023-01-19T03:02:05.630Z,3.94
2023-01-19T03:05:38.655Z,3.93
2023-01-19T03:09:02.000Z,3.91
2023-01-19T03:12:15.084Z,3.90
2023-01-19T03:15:27.554Z,3.85
2023-01-19T03:18:33.941Z,3.88
2023-01-19T03:21:37.547Z,3.88
2023-01-19T03:24:43.481Z,3.86
2023-01-19T03:27:47.264Z,3.84
2023-01-19T03:30:57.994Z,3.86
2023-01-19T03:34:08.345Z,3.83
2023-01-19T03:37:11.585Z,3.83
2023-01-19T03:40:13.671Z,3.82
2023-01-19T03:43:18.296Z,3.84
2023-01-19T03:46:21.061Z,3.86
2023-01-19T03:49:23.146Z,3.88
2023-01-19T03:52:33.682Z,3.86
2023-01-19T03:55:37.149Z,3.89
2023-01-19T03:58:38.983Z,3.88
2023-01-19T04:01:41.490Z,3.88
2023-01-19T04:04:43.485Z,3.84
2023-01-19T04:07:45.515Z,3.87
2023-01-19T04:10:47.337Z,3.89
2023-01-19T04:13:49.892Z,3.86
2023-01-19T04:16:52.397Z,3.93
2023-01-19T04:19:54.329Z,3.94
2023-01-19T04:23:00.138Z,3.97
2023-01-19T04:26:05.116Z,4.00
2023-01-19T04:29:06.986Z,4.00
2023-01-19T04:32:09.295Z,4.00
2023-01-19T04:35:11.273Z,4.00
2023-01-19T04:38:13.483Z,4.00
2023-01-19T04:41:15.427Z,4.02
2023-01-19T04:44:18.027Z,4.01
2023-01-19T04:47:20.340Z,4.06
2023-01-19T04:50:22.292Z,4.15
2023-01-19T04:53:24.196Z,4.18
2023-01-19T04:56:26.085Z,4.16
2023-01-19T04:59:28.000Z,4.22
2023-01-19T05:02:30.096Z,4.21
2023-01-19T05:05:33.240Z,4.24
2023-01-19T05:08:35.301Z,4.23
2023-01-19T05:11:37.235Z,4.22
2023-01-19T05:14:39.162Z,4.21
2023-01-19T05:17:41.251Z,4.21
2023-01-19T05:20:43.231Z,4.21
2023-01-19T05:23:45.287Z,4.24
2023-01-19T05:26:47.250Z,4.25
2023-01-19T05:29:49.087Z,4.25
2023-01-19T05:32:51.091Z,4.29
2023-01-19T05:35:53.537Z,4.27
2023-01-19T05:38:55.722Z,4.33
2023-01-19T05:41:57.599Z,4.31
2023-01-19T05:44:59.700Z,4.35
2023-01-19T05:48:02.267Z,4.30
2023-01-19T05:51:05.242Z,4.35
2023-01-19T05:54:07.916Z,4.41
2023-01-19T05:57:10.843Z,4.46
2023-01-19T06:00:12.962Z,4.49
2023-01-19T06:03:15.087Z,4.54
2023-01-19T06:06:17.260Z,4.57
2023-01-19T06:09:19.220Z,4.58
2023-01-19T06:12:21.172Z,4.60
2023-01-19T06:15:23.104Z,4.68
2023-01-19T06:18:25.085Z,4.64
2023-01-19T06:21:26.962Z,4.66
2023-01-19T06:24:29.748Z,4.68
2023-01-19T06:27:31.692Z,4.72
2023-01-19T06:30:33.593Z,4.78
2023-01-19T06:33:35.552Z,4.80
2023-01-19T06:36:37.502Z,4.80
2023-01-19T06:39:41.171Z,4.80
2023-01-19T06:42:43.088Z,4.85
2023-01-19T06:45:46.107Z,4.85
2023-01-19T06:48:48.235Z,4.93
2023-01-19T06:51:50.503Z,4.94
2023-01-19T06:54:52.848Z,4.98
2023-01-19T06:58:01.395Z,5.04
2023-01-19T07:01:05.627Z,5.10
2023-01-19T07:04:07.746Z,5.16
2023-01-19T07:07:09.653Z,5.24
2023-01-19T07:10:15.707Z,5.28
2023-01-19T07:13:17.762Z,5.36
2023-01-19T07:16:20.073Z,5.45
2023-01-19T07:19:21.919Z,5.48
2023-01-19T07:22:23.949Z,5.52
2023-01-19T07:25:27.066Z,5.51
2023-01-19T07:28:30.221Z,5.59
2023-01-19T07:31:32.149Z,5.56
2023-01-19T07:34:34.698Z,5.50
2023-01-19T07:37:36.649Z,5.51
2023-01-19T07:40:38.461Z,5.53
2023-01-19T07:43:40.375Z,5.50
2023-01-19T07:46:43.418Z,5.52
2023-01-19T07:49:45.313Z,5.51
2023-01-19T07:52:48.246Z,5.49
2023-01-19T07:55:54.473Z,5.47
2023-01-19T07:58:56.750Z,5.45
2023-01-19T08:01:59.641Z,5.58
2023-01-19T08:05:02.137Z,5.60
2023-01-19T08:08:05.632Z,5.64
2023-01-19T08:11:08.569Z,5.69
2023-01-19T08:14:10.854Z,5.73
2023-01-19T08:17:51.092Z,5.82
2023-01-19T08:20:53.031Z,5.87
2023-01-19T08:23:56.200Z,5.91
2023-01-19T08:27:00.356Z,5.92
2023-01-19T08:30:02.298Z,5.94
2023-01-19T08:33:04.661Z,5.96
2023-01-19T08:36:06.843Z,6.01
2023-01-19T08:39:12.260Z,6.04
2023-01-19T08:42:14.132Z,6.08
2023-01-19T08:45:16.210Z,6.10
2023-01-19T08:48:22.167Z,6.09
2023-01-19T08:51:24.272Z,6.12
2023-01-19T08:54:26.305Z,6.18
2023-01-19T08:57:28.451Z,6.22
2023-01-19T09:00:31.889Z,6.32
2023-01-19T09:03:34.019Z,6.33
2023-01-19T09:06:36.007Z,6.37
2023-01-19T09:09:39.805Z,6.38
2023-01-19T09:12:43.645Z,6.42
2023-01-19T09:15:46.445Z,6.35
2023-01-19T09:18:48.432Z,6.43
2023-01-19T09:21:51.040Z,6.42
2023-01-19T09:24:52.959Z,6.39
2023-01-19T09:27:56.220Z,6.50
2023-01-19T09:30:59.087Z,6.48
2023-01-19T09:34:00.916Z,6.46
2023-01-19T09:37:03.873Z,6.51
2023-01-19T09:40:06.382Z,6.53
2023-01-19T09:43:31.926Z,6.53
2023-01-19T09:46:42.922Z,6.50
2023-01-19T09:49:55.157Z,6.59
2023-01-19T09:53:04.482Z,6.59
2023-01-19T09:56:13.846Z,6.66
2023-01-19T09:59:25.293Z,6.69
2023-01-19T10:02:36.777Z,6.75
2023-01-19T10:06:06.348Z,6.82
2023-01-19T10:09:29.509Z,6.76
2023-01-19T10:12:54.748Z,6.80
2023-01-19T10:16:02.764Z,6.83
2023-01-19T10:29:53.380Z,6.87
2023-01-19T10:32:55.562Z,6.90
2023-01-19T10:35:57.563Z,6.92
2023-01-19T10:38:59.651Z,7.03
2023-01-19T10:42:05.998Z,7.08
2023-01-19T10:45:18.899Z,7.08
2023-01-19T10:48:20.951Z,7.15
2023-01-19T10:51:23.447Z,7.15
2023-01-19T10:54:27.902Z,7.18
2023-01-19T10:57:37.983Z,7.25
2023-01-19T11:00:44.391Z,7.27
2023-01-19T11:03:46.823Z,7.28
2023-01-19T11:06:49.098Z,7.31
2023-01-19T11:10:23.137Z,7.33
2023-01-19T11:13:25.307Z,7.40
2023-01-19T11:16:35.161Z,7.42
2023-01-19T11:19:37.294Z,7.42
2023-01-19T11:22:39.340Z,7.47
2023-01-19T11:25:45.461Z,7.50
2023-01-19T11:28:49.221Z,7.48
2023-01-19T11:31:53.312Z,7.54
2023-01-19T11:34:55.331Z,7.53
2023-01-19T11:38:27.560Z,7.55
2023-01-19T11:41:33.410Z,7.56
2023-01-19T11:45:01.858Z,7.53
2023-01-19T11:48:05.948Z,7.51
2023-01-19T11:51:14.645Z,7.53
2023-01-19T11:54:25.706Z,7.49
2023-01-19T11:57:27.735Z,7.48
2023-01-19T12:00:36.185Z,7.45
2023-01-19T12:03:42.433Z,7.47
2023-01-19T12:06:49.460Z,7.47
2023-01-19T12:09:56.528Z,7.45
2023-01-19T12:12:59.411Z,7.41
2023-01-19T12:16:05.580Z,7.39
2023-01-19T12:19:16.201Z,7.40
2023-01-19T12:22:20.301Z,7.45
2023-01-19T12:25:29.998Z,7.45
2023-01-19T12:28:37.114Z,7.46
2023-01-19T12:31:40.845Z,7.51
2023-01-19T12:34:47.922Z,7.49
2023-01-19T12:37:49.704Z,7.48
2023-01-19T12:41:23.052Z,7.48
2023-01-19T12:44:27.795Z,7.44
2023-01-19T12:47:30.001Z,7.44
2023-01-19T12:50:40.055Z,7.38
2023-01-19T12:53:51.965Z,7.38
2023-01-19T12:57:28.418Z,7.34
2023-01-19T13:00:36.291Z,7.30
2023-01-19T13:04:02.072Z,7.27
2023-01-19T13:07:10.388Z,7.28
2023-01-19T13:10:49.928Z,7.29
2023-01-19T13:14:00.832Z,7.28
2023-01-19T13:17:05.569Z,7.30
2023-01-19T13:20:22.694Z,7.30
2023-01-19T13:23:27.567Z,7.32
2023-01-19T13:26:33.465Z,7.25
2023-01-19T13:29:43.062Z,7.23
2023-01-19T13:32:45.305Z,7.22
2023-01-19T13:35:56.559Z,7.18
2023-01-19T13:39:01.639Z,7.10
2023-01-19T13:42:16.434Z,7.10
2023-01-19T13:45:24.235Z,7.05
2023-01-19T13:48:26.250Z,7.00
2023-01-19T13:51:28.241Z,6.99
2023-01-19T13:54:30.239Z,6.93
2023-01-19T13:57:33.299Z,6.97
2023-01-19T14:00:35.295Z,6.97
2023-01-19T14:03:46.455Z,6.93
2023-01-19T14:06:49.809Z,6.90
2023-01-19T14:10:12.299Z,6.93
2023-01-19T14:13:29.806Z,6.91
2023-01-19T14:16:31.988Z,6.90
2023-01-19T14:19:51.091Z,6.90
2023-01-19T14:22:53.286Z,6.89
2023-01-19T14:25:55.313Z,6.86
2023-01-19T14:28:57.326Z,6.84
2023-01-19T14:32:09.979Z,6.79
2023-01-19T14:35:23.251Z,6.69
2023-01-19T14:38:25.733Z,6.67
2023-01-19T14:41:40.777Z,6.66
2023-01-19T14:44:48.213Z,6.63
2023-01-19T14:48:02.859Z,6.57
2023-01-19T14:51:08.004Z,6.56
2023-01-19T14:54:21.647Z,6.58
2023-01-19T14:57:23.880Z,6.56
2023-01-19T15:00:27.290Z,6.57
2023-01-19T15:03:44.211Z,6.58
2023-01-19T15:06:49.341Z,6.53
2023-01-19T15:09:53.653Z,6.59
2023-01-19T15:12:56.652Z,6.51
2023-01-19T15:15:59.072Z,6.51
2023-01-19T15:19:01.182Z,6.53
2023-01-19T15:22:13.427Z,6.48
2023-01-19T15:25:31.694Z,6.56
2023-01-19T15:28:34.465Z,6.55
2023-01-19T15:31:39.575Z,6.53
2023-01-19T15:34:42.304Z,6.55
2023-01-19T15:37:45.053Z,6.56
2023-01-19T15:40:51.491Z,6.61
2023-01-19T15:43:53.972Z,6.61
2023-01-19T15:46:57.516Z,6.57
2023-01-19T15:49:59.534Z,6.59
2023-01-19T15:53:01.614Z,6.54
2023-01-19T15:56:03.840Z,6.55
2023-01-19T15:59:06.784Z,6.50
2023-01-19T16:02:09.773Z,6.46
2023-01-19T16:05:13.219Z,6.47
2023-01-19T16:08:17.796Z,6.36
2023-01-19T16:11:20.232Z,6.38
2023-01-19T16:14:22.441Z,6.36
2023-01-19T16:17:25.330Z,6.28
2023-01-19T16:20:27.130Z,6.25
2023-01-19T16:23:29.102Z,6.23
2023-01-19T16:26:34.429Z,6.19
2023-01-19T16:29:36.521Z,6.14
2023-01-19T16:32:39.090Z,6.07
2023-01-19T16:35:41.135Z,6.01
2023-01-19T16:38:43.114Z,5.97
2023-01-19T16:41:46.786Z,5.94
2023-01-19T16:44:48.772Z,5.90
2023-01-19T16:47:52.246Z,5.85
2023-01-19T16:51:05.904Z,5.79
2023-01-19T16:54:16.411Z,5.72
2023-01-19T16:57:20.640Z,5.72
2023-01-19T17:00:26.830Z,5.70
2023-01-19T17:03:28.742Z,5.68
2023-01-19T17:06:32.133Z,5.59
2023-01-19T17:09:35.237Z,5.60
2023-01-19T17:12:38.613Z,5.55
2023-01-19T17:15:40.736Z,5.58
2023-01-19T17:18:42.782Z,5.56
2023-01-19T17:35:11.914Z,5.73
2023-01-19T17:38:17.137Z,5.71
2023-01-19T17:41:24.605Z,5.69
2023-01-19T17:44:26.549Z,5.66
2023-01-19T17:47:29.408Z,5.71
2023-01-19T17:50:32.232Z,5.59
2023-01-19T17:53:36.041Z,5.64
2023-01-19T17:56:38.909Z,5.64
2023-01-19T17:59:43.786Z,5.62
2023-01-19T18:02:49.253Z,5.62
2023-01-19T18:05:58.351Z,5.58
2023-01-19T18:09:02.705Z,5.57
2023-01-19T18:12:04.937Z,5.65
2023-01-19T18:15:08.575Z,5.63
2023-01-19T18:18:10.477Z,5.67
2023-01-19T18:21:14.885Z,5.65
2023-01-19T18:24:17.028Z,5.62
2023-01-19T18:27:20.636Z,5.55
2023-01-19T18:30:22.976Z,5.58
2023-01-19T18:33:25.792Z,5.60
2023-01-19T18:36:28.785Z,5.64
2023-01-19T18:39:31.197Z,5.56
2023-01-19T18:42:34.010Z,5.58
2023-01-19T18:45:37.197Z,5.57
2023-01-19T18:48:39.781Z,5.55
2023-01-19T18:51:42.092Z,5.55
2023-01-19T18:54:44.037Z,5.55
2023-01-19T18:57:46.009Z,5.58
2023-01-19T19:00:49.247Z,5.58
2023-01-19T19:03:52.877Z,5.55
2023-01-19T19:06:54.790Z,5.52
2023-01-19T19:09:56.685Z,5.49
2023-01-19T19:13:01.353Z,5.49
2023-01-19T19:16:07.980Z,5.52
2023-01-19T19:19:11.974Z,5.49
2023-01-19T19:22:14.183Z,5.42
2023-01-19T19:25:16.273Z,5.43
2023-01-19T19:28:18.568Z,5.41
2023-01-19T19:31:22.572Z,5.36
2023-01-19T19:34:25.052Z,5.37
2023-01-19T19:37:26.974Z,5.33
2023-01-19T19:40:29.312Z,5.33
2023-01-19T19:43:37.935Z,5.31
2023-01-19T19:46:41.446Z,5.29
2023-01-19T19:49:43.479Z,5.26
2023-01-19T19:52:45.402Z,5.23
2023-01-19T19:56:01.734Z,5.18
2023-01-19T19:59:03.712Z,5.15
2023-01-19T20:02:05.732Z,5.14
2023-01-19T20:05:08.086Z,5.08
2023-01-19T20:08:10.062Z,5.04
2023-01-19T20:11:14.716Z,5.07
2023-01-19T20:14:16.655Z,5.04
2023-01-19T20:17:19.203Z,4.99
2023-01-19T20:20:21.127Z,4.97
2023-01-19T20:23:22.998Z,4.91
2023-01-19T20:26:29.360Z,4.93
2023-01-19T20:29:31.355Z,4.89
2023-01-19T20:32:33.741Z,4.83
2023-01-19T20:35:35.704Z,4.84
2023-01-19T20:38:38.654Z,4.79
2023-01-19T20:41:43.824Z,4.80
2023-01-19T20:44:45.791Z,4.77
2023-01-19T20:47:47.641Z,4.74
2023-01-19T20:50:49.866Z,4.74
2023-01-19T20:53:51.802Z,4.73
2023-01-19T20:56:54.124Z,4.71
2023-01-19T20:59:56.097Z,4.70
2023-01-19T21:02:58.348Z,4.66
2023-01-19T21:06:00.276Z,4.65
2023-01-19T21:09:02.547Z,4.53
2023-01-19T21:12:04.586Z,4.57
2023-01-19T21:15:07.108Z,4.53
2023-01-19T21:18:08.944Z,4.50
2023-01-19T21:21:24.583Z,4.49
2023-01-19T21:24:31.123Z,4.55
2023-01-19T21:27:33.227Z,4.52
2023-01-19T21:30:36.468Z,4.47
2023-01-19T21:33:39.874Z,4.41
2023-01-19T21:36:41.885Z,4.43
2023-01-19T21:39:43.838Z,4.47
2023-01-19T21:42:45.764Z,4.48
2023-01-19T21:45:48.735Z,4.45
2023-01-19T21:48:50.577Z,4.39
2023-01-19T21:51:52.691Z,4.44
2023-01-19T21:54:54.880Z,4.36
2023-01-19T21:57:57.038Z,4.33
2023-01-19T22:01:00.782Z,4.36
2023-01-19T22:04:02.844Z,4.34
2023-01-19T22:07:05.404Z,4.29
2023-01-19T22:10:09.305Z,4.29
2023-01-19T22:13:11.239Z,4.30
2023-01-19T22:16:18.860Z,4.24
2023-01-19T22:19:20.896Z,4.23
2023-01-19T22:22:22.731Z,4.20
2023-01-19T22:25:27.879Z,4.18
2023-01-19T22:28:29.970Z,4.19
2023-01-19T22:31:32.576Z,4.18
2023-01-19T22:34:35.037Z,4.21
2023-01-19T22:37:37.637Z,4.15
2023-01-19T22:40:39.583Z,4.10
2023-01-19T22:43:41.954Z,4.13
2023-01-19T22:46:44.569Z,4.08
2023-01-19T22:49:46.460Z,4.11
2023-01-19T22:52:48.368Z,4.13
2023-01-19T22:55:50.335Z,4.07
2023-01-19T22:58:52.868Z,4.01
2023-01-19T23:01:54.894Z,4.07
2023-01-19T23:04:56.872Z,4.07
2023-01-19T23:07:58.799Z,4.00
2023-01-19T23:11:12.384Z,4.04
2023-01-19T23:14:17.756Z,4.09
2023-01-19T23:17:19.727Z,4.06
2023-01-19T23:20:21.628Z,4.01
2023-01-19T23:23:32.342Z,4.02
2023-01-19T23:26:38.332Z,3.92
2023-01-19T23:29:40.415Z,3.97
2023-01-19T23:32:47.094Z,3.94
2023-01-19T23:35:49.132Z,3.92
2023-01-19T23:38:54.039Z,3.90
2023-01-19T23:41:55.938Z,3.90
2023-01-19T23:44:57.817Z,3.88
2023-01-19T23:47:59.757Z,3.88
2023-01-19T23:51:13.249Z,3.89
2023-01-19T23:54:15.322Z,3.86
2023-01-19T23:57:17.207Z,3.84
